sensor_id;sensor_type;location;lat;lon;timestamp;temperature;humidity
75517;DHT22;64097;52.548;13.406;2024-03-23T06:04:10;14.40;65.30
75517;DHT22;64097;52.548;13.406;2024-03-23T06:06:36;14.40;65.20
75517;DHT22;64097;52.548;13.406;2024-03-23T06:09:01;14.40;65.00
75517;DHT22;64097;52.548;13.406;2024-03-23T06:11:27;14.40;65.30
75517;DHT22;64097;52.548;13.406;2024-03-23T06:13:52;14.40;65.40
75517;DHT22;64097;52.548;13.406;2024-03-23T06:16:18;14.50;65.60
75517;DHT22;64097;52.548;13.406;2024-03-23T06:18:49;14.50;65.40
75517;DHT22;64097;52.548;13.406;2024-03-23T06:21:14;14.40;64.70
75517;DHT22;64097;52.548;13.406;2024-03-23T06:23:41;14.40;64.40
75517;DHT22;64097;52.548;13.406;2024-03-23T06:26:07;14.40;64.20
75517;DHT22;64097;52.548;13.406;2024-03-23T06:28:33;14.40;64.10
75517;DHT22;64097;52.548;13.406;2024-03-23T06:30:59;14.40;64.20
75517;DHT22;64097;52.548;13.406;2024-03-23T06:33:25;14.30;64.10
75517;DHT22;64097;52.548;13.406;2024-03-23T06:35:51;14.30;63.90
75517;DHT22;64097;52.548;13.406;2024-03-23T06:38:18;14.30;63.90
75517;DHT22;64097;52.548;13.406;2024-03-23T06:40:43;14.30;64.20
75517;DHT22;64097;52.548;13.406;2024-03-23T06:43:13;14.30;64.10
75517;DHT22;64097;52.548;13.406;2024-03-23T06:45:39;14.30;64.10
75517;DHT22;64097;52.548;13.406;2024-03-23T06:48:05;14.40;64.00
75517;DHT22;64097;52.548;13.406;2024-03-23T06:50:33;14.40;64.00
75517;DHT22;64097;52.548;13.406;2024-03-23T06:52:59;14.40;63.50
75517;DHT22;64097;52.548;13.406;2024-03-23T06:55:27;14.30;63.40
75517;DHT22;64097;52.548;13.406;2024-03-23T06:57:53;14.30;63.50
75517;DHT22;64097;52.548;13.406;2024-03-23T07:00:19;14.40;63.60
75517;DHT22;64097;52.548;13.406;2024-03-23T07:02:45;14.40;63.40
75517;DHT22;64097;52.548;13.406;2024-03-23T07:05:11;14.40;63.20
75517;DHT22;64097;52.548;13.406;2024-03-23T07:07:38;14.40;62.70
75517;DHT22;64097;52.548;13.406;2024-03-23T07:10:05;14.40;62.80
75517;DHT22;64097;52.548;13.406;2024-03-23T07:12:31;14.40;62.70
75517;DHT22;64097;52.548;13.406;2024-03-23T07:14:56;14.40;62.80
75517;DHT22;64097;52.548;13.406;2024-03-23T07:17:22;14.40;62.50
75517;DHT22;64097;52.548;13.406;2024-03-23T07:19:48;14.40;62.20
75517;DHT22;64097;52.548;13.406;2024-03-23T07:22:14;14.40;62.30
75517;DHT22;64097;52.548;13.406;2024-03-23T07:24:40;14.40;62.10
75517;DHT22;64097;52.548;13.406;2024-03-23T07:27:06;14.40;62.80
75517;DHT22;64097;52.548;13.406;2024-03-23T07:29:35;14.50;61.90
75517;DHT22;64097;52.548;13.406;2024-03-23T07:32:01;14.50;61.60
75517;DHT22;64097;52.548;13.406;2024-03-23T07:34:27;14.50;61.50
75517;DHT22;64097;52.548;13.406;2024-03-23T07:36:53;14.40;61.60
75517;DHT22;64097;52.548;13.406;2024-03-23T07:39:18;14.50;61.70
75517;DHT22;64097;52.548;13.406;2024-03-23T07:41:44;14.50;61.90
75517;DHT22;64097;52.548;13.406;2024-03-23T07:44:10;14.50;62.00
75517;DHT22;64097;52.548;13.406;2024-03-23T07:46:36;14.50;61.80
75517;DHT22;64097;52.548;13.406;2024-03-23T07:49:04;14.50;61.80
75517;DHT22;64097;52.548;13.406;2024-03-23T07:51:30;14.50;61.90
75517;DHT22;64097;52.548;13.406;2024-03-23T07:53:55;14.50;61.90
75517;DHT22;64097;52.548;13.406;2024-03-23T07:56:21;14.50;61.90
75517;DHT22;64097;52.548;13.406;2024-03-23T07:58:49;14.50;62.10
75517;DHT22;64097;52.548;13.406;2024-03-23T08:01:16;14.50;61.70
75517;DHT22;64097;52.548;13.406;2024-03-23T08:03:43;14.40;61.70
75517;DHT22;64097;52.548;13.406;2024-03-23T08:06:16;14.40;61.80
75517;DHT22;64097;52.548;13.406;2024-03-23T08:08:44;14.30;62.20
75517;DHT22;64097;52.548;13.406;2024-03-23T08:11:10;14.30;61.90
75517;DHT22;64097;52.548;13.406;2024-03-23T08:13:41;14.20;61.30
75517;DHT22;64097;52.548;13.406;2024-03-23T08:16:07;14.20;61.70
75517;DHT22;64097;52.548;13.406;2024-03-23T08:18:34;14.10;61.80
75517;DHT22;64097;52.548;13.406;2024-03-23T08:21:01;14.10;62.20
75517;DHT22;64097;52.548;13.406;2024-03-23T08:23:27;14.10;62.40
75517;DHT22;64097;52.548;13.406;2024-03-23T08:26:00;14.00;61.80
75517;DHT22;64097;52.548;13.406;2024-03-23T08:28:27;14.00;61.80
75517;DHT22;64097;52.548;13.406;2024-03-23T08:30:53;13.90;62.00
75517;DHT22;64097;52.548;13.406;2024-03-23T08:33:19;13.90;62.20
75517;DHT22;64097;52.548;13.406;2024-03-23T08:36:02;13.90;62.80
75517;DHT22;64097;52.548;13.406;2024-03-23T08:38:29;13.80;63.00
75517;DHT22;64097;52.548;13.406;2024-03-23T08:43:26;13.80;63.20
75517;DHT22;64097;52.548;13.406;2024-03-23T08:45:52;13.80;63.30
75517;DHT22;64097;52.548;13.406;2024-03-23T08:48:21;13.80;63.20
75517;DHT22;64097;52.548;13.406;2024-03-23T08:50:47;13.70;62.90
75517;DHT22;64097;52.548;13.406;2024-03-23T08:53:24;13.70;62.80
75517;DHT22;64097;52.548;13.406;2024-03-23T08:55:56;13.70;62.90
75517;DHT22;64097;52.548;13.406;2024-03-23T08:58:24;13.60;62.90
75517;DHT22;64097;52.548;13.406;2024-03-23T09:00:51;13.60;62.90
75517;DHT22;64097;52.548;13.406;2024-03-23T09:03:17;13.50;63.30
75517;DHT22;64097;52.548;13.406;2024-03-23T09:05:42;13.40;63.90
75517;DHT22;64097;52.548;13.406;2024-03-23T09:08:08;13.40;64.00
75517;DHT22;64097;52.548;13.406;2024-03-23T09:10:42;13.30;64.50
75517;DHT22;64097;52.548;13.406;2024-03-23T09:13:08;13.20;65.50
75517;DHT22;64097;52.548;13.406;2024-03-23T09:15:35;13.10;67.00
75517;DHT22;64097;52.548;13.406;2024-03-23T09:18:01;13.00;67.60
75517;DHT22;64097;52.548;13.406;2024-03-23T09:20:27;13.00;67.70
75517;DHT22;64097;52.548;13.406;2024-03-23T09:22:53;12.90;67.60
75517;DHT22;64097;52.548;13.406;2024-03-23T09:25:19;12.90;67.60
75517;DHT22;64097;52.548;13.406;2024-03-23T09:27:47;12.80;67.30
75517;DHT22;64097;52.548;13.406;2024-03-23T09:30:13;12.80;67.20
75517;DHT22;64097;52.548;13.406;2024-03-23T09:32:41;12.70;67.70
75517;DHT22;64097;52.548;13.406;2024-03-23T09:35:07;12.70;68.30
75517;DHT22;64097;52.548;13.406;2024-03-23T09:37:33;12.70;68.20
75517;DHT22;64097;52.548;13.406;2024-03-23T09:39:59;12.70;68.10
75517;DHT22;64097;52.548;13.406;2024-03-23T09:42:24;12.60;68.30
75517;DHT22;64097;52.548;13.406;2024-03-23T09:44:51;12.60;68.70
75517;DHT22;64097;52.548;13.406;2024-03-23T09:47:17;12.60;68.60
75517;DHT22;64097;52.548;13.406;2024-03-23T09:49:44;12.50;68.70
75517;DHT22;64097;52.548;13.406;2024-03-23T09:52:10;12.50;68.60
75517;DHT22;64097;52.548;13.406;2024-03-23T09:54:36;12.50;68.90
75517;DHT22;64097;52.548;13.406;2024-03-23T09:57:01;12.40;70.70
75517;DHT22;64097;52.548;13.406;2024-03-23T09:59:29;12.30;71.10
75517;DHT22;64097;52.548;13.406;2024-03-23T10:01:55;12.30;70.70
75517;DHT22;64097;52.548;13.406;2024-03-23T10:04:41;12.30;70.60
75517;DHT22;64097;52.548;13.406;2024-03-23T10:07:13;12.20;70.30
75517;DHT22;64097;52.548;13.406;2024-03-23T10:09:39;12.20;70.00
75517;DHT22;64097;52.548;13.406;2024-03-23T10:12:12;12.20;70.00
75517;DHT22;64097;52.548;13.406;2024-03-23T10:14:42;12.20;70.20
75517;DHT22;64097;52.548;13.406;2024-03-23T10:17:17;12.20;69.90
75517;DHT22;64097;52.548;13.406;2024-03-23T10:19:47;12.20;72.00
75517;DHT22;64097;52.548;13.406;2024-03-23T10:22:21;12.20;71.60
75517;DHT22;64097;52.548;13.406;2024-03-23T10:24:47;12.10;71.50
75517;DHT22;64097;52.548;13.406;2024-03-23T10:27:20;12.10;71.60
75517;DHT22;64097;52.548;13.406;2024-03-23T10:29:46;12.10;71.40
75517;DHT22;64097;52.548;13.406;2024-03-23T10:32:16;12.10;71.10
75517;DHT22;64097;52.548;13.406;2024-03-23T10:34:43;12.10;71.20
75517;DHT22;64097;52.548;13.406;2024-03-23T10:37:09;12.10;71.50
75517;DHT22;64097;52.548;13.406;2024-03-23T10:39:41;12.10;71.70
75517;DHT22;64097;52.548;13.406;2024-03-23T10:42:08;12.20;71.70
75517;DHT22;64097;52.548;13.406;2024-03-23T10:44:35;12.20;71.70
75517;DHT22;64097;52.548;13.406;2024-03-23T10:47:02;12.20;71.90
75517;DHT22;64097;52.548;13.406;2024-03-23T10:49:35;12.30;71.60
75517;DHT22;64097;52.548;13.406;2024-03-23T10:52:02;12.30;71.70
75517;DHT22;64097;52.548;13.406;2024-03-23T10:54:30;12.30;71.80
75517;DHT22;64097;52.548;13.406;2024-03-23T10:59:34;12.40;72.20
75517;DHT22;64097;52.548;13.406;2024-03-23T11:02:01;12.40;71.80
75517;DHT22;64097;52.548;13.406;2024-03-23T11:04:33;12.50;71.70
75517;DHT22;64097;52.548;13.406;2024-03-23T11:07:00;12.50;71.80
75517;DHT22;64097;52.548;13.406;2024-03-23T11:14:50;12.60;72.00
75517;DHT22;64097;52.548;13.406;2024-03-23T11:17:23;12.70;72.20
75517;DHT22;64097;52.548;13.406;2024-03-23T11:19:57;12.80;72.30
75517;DHT22;64097;52.548;13.406;2024-03-23T11:22:42;12.80;72.30
75517;DHT22;64097;52.548;13.406;2024-03-23T11:25:22;12.80;71.30
75517;DHT22;64097;52.548;13.406;2024-03-23T11:27:50;12.90;70.70
75517;DHT22;64097;52.548;13.406;2024-03-23T11:30:17;13.00;70.70
75517;DHT22;64097;52.548;13.406;2024-03-23T11:32:47;13.00;70.40
75517;DHT22;64097;52.548;13.406;2024-03-23T11:35:32;13.00;70.20
75517;DHT22;64097;52.548;13.406;2024-03-23T11:38:05;13.00;69.20
75517;DHT22;64097;52.548;13.406;2024-03-23T11:40:32;13.10;69.40
75517;DHT22;64097;52.548;13.406;2024-03-23T11:42:59;13.10;69.30
75517;DHT22;64097;52.548;13.406;2024-03-23T11:45:25;13.20;69.70
75517;DHT22;64097;52.548;13.406;2024-03-23T11:50:29;13.40;70.10
75517;DHT22;64097;52.548;13.406;2024-03-23T11:53:16;13.50;70.40
75517;DHT22;64097;52.548;13.406;2024-03-23T11:55:48;13.60;70.60
75517;DHT22;64097;52.548;13.406;2024-03-23T11:58:15;13.70;70.40
75517;DHT22;64097;52.548;13.406;2024-03-23T12:00:42;13.80;70.30
75517;DHT22;64097;52.548;13.406;2024-03-23T12:03:08;13.90;70.30
75517;DHT22;64097;52.548;13.406;2024-03-23T12:05:36;14.00;70.10
75517;DHT22;64097;52.548;13.406;2024-03-23T12:08:24;14.10;69.30
75517;DHT22;64097;52.548;13.406;2024-03-23T12:10:52;14.10;68.80
75517;DHT22;64097;52.548;13.406;2024-03-23T12:13:21;14.20;68.90
75517;DHT22;64097;52.548;13.406;2024-03-23T12:15:50;14.20;68.60
75517;DHT22;64097;52.548;13.406;2024-03-23T12:18:17;14.30;68.10
75517;DHT22;64097;52.548;13.406;2024-03-23T12:20:43;14.30;67.80
75517;DHT22;64097;52.548;13.406;2024-03-23T12:23:11;14.30;67.90
75517;DHT22;64097;52.548;13.406;2024-03-23T12:25:40;14.30;67.70
75517;DHT22;64097;52.548;13.406;2024-03-23T12:28:06;14.30;67.00
75517;DHT22;64097;52.548;13.406;2024-03-23T12:30:35;14.30;67.20
75517;DHT22;64097;52.548;13.406;2024-03-23T12:33:02;14.30;66.70
75517;DHT22;64097;52.548;13.406;2024-03-23T12:35:29;14.30;66.70
75517;DHT22;64097;52.548;13.406;2024-03-23T12:37:54;14.40;67.00
75517;DHT22;64097;52.548;13.406;2024-03-23T12:40:21;14.40;67.20
75517;DHT22;64097;52.548;13.406;2024-03-23T12:42:46;14.40;67.20
75517;DHT22;64097;52.548;13.406;2024-03-23T12:45:12;14.50;67.10
75517;DHT22;64097;52.548;13.406;2024-03-23T12:47:38;14.60;66.70
75517;DHT22;64097;52.548;13.406;2024-03-23T12:50:04;14.60;66.10
75517;DHT22;64097;52.548;13.406;2024-03-23T12:52:31;14.70;66.10
75517;DHT22;64097;52.548;13.406;2024-03-23T12:54:57;14.70;66.10
75517;DHT22;64097;52.548;13.406;2024-03-23T12:57:24;14.70;65.30
75517;DHT22;64097;52.548;13.406;2024-03-23T12:59:53;14.80;65.70
75517;DHT22;64097;52.548;13.406;2024-03-23T13:02:23;14.80;64.40
75517;DHT22;64097;52.548;13.406;2024-03-23T13:04:52;14.80;63.60
75517;DHT22;64097;52.548;13.406;2024-03-23T13:07:19;14.90;64.00
75517;DHT22;64097;52.548;13.406;2024-03-23T13:09:46;14.90;64.60
75517;DHT22;64097;52.548;13.406;2024-03-23T13:12:12;14.90;64.70
75517;DHT22;64097;52.548;13.406;2024-03-23T13:14:38;14.90;65.00
75517;DHT22;64097;52.548;13.406;2024-03-23T13:17:04;14.90;63.90
75517;DHT22;64097;52.548;13.406;2024-03-23T13:19:30;15.00;63.60
75517;DHT22;64097;52.548;13.406;2024-03-23T13:21:57;15.00;63.70
75517;DHT22;64097;52.548;13.406;2024-03-23T13:24:24;15.00;63.90
75517;DHT22;64097;52.548;13.406;2024-03-23T13:26:53;15.00;63.90
75517;DHT22;64097;52.548;13.406;2024-03-23T13:29:20;15.00;63.90
75517;DHT22;64097;52.548;13.406;2024-03-23T13:31:46;15.00;63.90
75517;DHT22;64097;52.548;13.406;2024-03-23T13:34:12;15.00;64.10
75517;DHT22;64097;52.548;13.406;2024-03-23T13:36:46;15.00;64.20
75517;DHT22;64097;52.548;13.406;2024-03-23T13:39:14;15.00;63.90
75517;DHT22;64097;52.548;13.406;2024-03-23T13:41:42;15.00;64.00
75517;DHT22;64097;52.548;13.406;2024-03-23T13:44:09;14.90;63.70
75517;DHT22;64097;52.548;13.406;2024-03-23T13:46:39;15.00;63.90
75517;DHT22;64097;52.548;13.406;2024-03-23T13:49:06;15.00;63.70
75517;DHT22;64097;52.548;13.406;2024-03-23T13:51:32;15.00;63.50
75517;DHT22;64097;52.548;13.406;2024-03-23T13:53:57;15.00;63.90
75517;DHT22;64097;52.548;13.406;2024-03-23T13:56:29;15.00;64.20
75517;DHT22;64097;52.548;13.406;2024-03-23T13:58:56;14.90;64.10
